Time;durP1;ratioP1;P1;durP2;ratioP2;P2;SDS_P1;SDS_P2;PMS_P1;PMS_P2;Temp;Humidity;BMP_temperature;BMP_pressure;BME280_temperature;BME280_humidity;BME280_pressure;Samples;Min_cycle;Max_cycle;Signal;HPM_P1;HPM_P2
2021/08/31 00:01:46;;;;;;;;;;;23.90;52.20;;;;;;491602;240;1338;-73
2021/08/31 00:03:48;;;;;;;;;;;24.20;51.80;;;;;;491627;240;1138;-73
2021/08/31 00:05:49;;;;;;;;;;;23.70;52.30;;;;;;491655;240;1269;-73
2021/08/31 00:07:50;;;;;;;;;;;23.90;52.10;;;;;;491682;240;1104;-73
2021/08/31 00:09:52;;;;;;;;;;;24.10;51.80;;;;;;491684;240;997;-73
2021/08/31 00:11:53;;;;;;;;;;;24.00;52.20;;;;;;491505;240;1232;-73
2021/08/31 00:13:54;;;;;;;;;;;24.30;51.60;;;;;;491592;240;2196;-73
2021/08/31 00:15:56;;;;;;;;;;;23.70;52.30;;;;;;491604;240;1212;-73
2021/08/31 00:18:00;;;;;;;;;;;23.90;51.90;;;;;;491570;240;1156;-73
2021/08/31 00:19:58;;;;;;;;;;;24.30;51.80;;;;;;491642;240;1413;-73
2021/08/31 00:22:00;;;;;;;;;;;23.50;52.80;;;;;;491566;240;1106;-73
2021/08/31 00:24:01;;;;;;;;;;;23.90;52.10;;;;;;491528;240;1035;-73
2021/08/31 00:26:02;;;;;;;;;;;23.90;52.40;;;;;;491558;240;1532;-73
2021/08/31 00:28:04;;;;;;;;;;;24.10;51.90;;;;;;491581;240;989;-73
2021/08/31 00:30:05;;;;;;;;;;;23.50;52.60;;;;;;491620;240;1017;-73
2021/08/31 00:32:06;;;;;;;;;;;23.00;54.00;;;;;;491562;240;1169;-73
2021/08/31 00:34:08;;;;;;;;;;;23.60;53.20;;;;;;491578;240;2191;-73
2021/08/31 00:36:09;;;;;;;;;;;23.70;53.10;;;;;;491519;240;1243;-73
2021/08/31 00:38:10;;;;;;;;;;;23.70;53.20;;;;;;491596;240;954;-73
2021/08/31 00:40:12;;;;;;;;;;;23.10;53.80;;;;;;491607;240;1053;-73
2021/08/31 00:42:13;;;;;;;;;;;23.00;54.30;;;;;;491623;240;1171;-73
2021/08/31 00:44:14;;;;;;;;;;;23.60;53.40;;;;;;491664;240;1103;-73
2021/08/31 00:46:16;;;;;;;;;;;23.20;53.70;;;;;;491546;240;1209;-73
2021/08/31 00:48:18;;;;;;;;;;;23.00;54.40;;;;;;491634;240;1157;-73
2021/08/31 00:50:19;;;;;;;;;;;23.00;54.50;;;;;;491653;240;1069;-73
2021/08/31 00:52:20;;;;;;;;;;;23.00;54.40;;;;;;491558;240;1085;-73
2021/08/31 00:54:22;;;;;;;;;;;22.80;54.90;;;;;;491625;240;2200;-73
2021/08/31 00:56:23;;;;;;;;;;;22.90;54.90;;;;;;491547;240;1097;-73
2021/08/31 00:58:24;;;;;;;;;;;23.10;53.70;;;;;;491665;240;1056;-73
2021/08/31 01:00:26;;;;;;;;;;;23.20;54.00;;;;;;491613;240;1231;-73
2021/08/31 01:02:27;;;;;;;;;;;23.10;54.60;;;;;;491681;240;1133;-73
2021/08/31 01:04:28;;;;;;;;;;;23.00;54.60;;;;;;491630;240;1115;-73
2021/08/31 01:06:30;;;;;;;;;;;23.10;54.40;;;;;;491495;240;1204;-73
2021/08/31 01:08:31;;;;;;;;;;;23.00;54.40;;;;;;491564;240;1142;-73
2021/08/31 01:10:32;;;;;;;;;;;22.80;54.90;;;;;;491519;240;1310;-73
2021/08/31 01:12:34;;;;;;;;;;;22.80;54.80;;;;;;491408;240;1198;-73
2021/08/31 01:14:35;;;;;;;;;;;23.30;53.80;;;;;;491666;240;2195;-73
2021/08/31 01:16:36;;;;;;;;;;;23.00;54.30;;;;;;491519;240;1268;-73
2021/08/31 01:18:37;;;;;;;;;;;23.40;53.50;;;;;;491638;240;1118;-73
2021/08/31 01:20:39;;;;;;;;;;;23.60;53.40;;;;;;491622;240;1182;-73
2021/08/31 01:22:40;;;;;;;;;;;23.20;54.00;;;;;;491476;240;1169;-73
2021/08/31 01:24:42;;;;;;;;;;;23.60;53.50;;;;;;491575;240;1099;-73
2021/08/31 01:26:43;;;;;;;;;;;23.10;54.20;;;;;;491573;240;1270;-73
2021/08/31 01:28:44;;;;;;;;;;;22.80;54.90;;;;;;491604;240;1037;-73
2021/08/31 01:30:46;;;;;;;;;;;23.00;54.30;;;;;;491679;240;1296;-73
2021/08/31 01:32:47;;;;;;;;;;;23.40;53.70;;;;;;491584;240;1107;-73
2021/08/31 01:34:48;;;;;;;;;;;22.90;54.40;;;;;;491531;240;2195;-73
2021/08/31 01:36:50;;;;;;;;;;;23.00;54.50;;;;;;491479;240;1216;-73
2021/08/31 01:38:51;;;;;;;;;;;22.90;54.60;;;;;;491545;240;1127;-73
2021/08/31 01:40:52;;;;;;;;;;;23.00;54.50;;;;;;491511;240;1226;-73
2021/08/31 01:42:54;;;;;;;;;;;23.00;54.00;;;;;;491652;240;1130;-73
2021/08/31 01:44:55;;;;;;;;;;;23.00;54.50;;;;;;491652;240;1128;-73
2021/08/31 01:46:56;;;;;;;;;;;23.00;54.30;;;;;;491745;240;1093;-73
2021/08/31 01:48:58;;;;;;;;;;;23.20;53.70;;;;;;491606;240;1147;-73
2021/08/31 01:50:59;;;;;;;;;;;22.90;54.40;;;;;;491599;240;1155;-73
2021/08/31 01:53:00;;;;;;;;;;;23.10;54.30;;;;;;491671;240;1096;-73
2021/08/31 01:55:02;;;;;;;;;;;23.20;54.20;;;;;;491635;240;2192;-73
2021/08/31 01:57:03;;;;;;;;;;;23.00;54.10;;;;;;491552;240;1246;-73
2021/08/31 01:59:04;;;;;;;;;;;23.20;53.60;;;;;;491650;240;1117;-73
2021/08/31 02:01:06;;;;;;;;;;;23.10;53.70;;;;;;491579;240;948;-73
2021/08/31 02:03:07;;;;;;;;;;;23.10;54.10;;;;;;491658;240;1136;-72
2021/08/31 02:05:08;;;;;;;;;;;23.70;53.00;;;;;;491673;240;1180;-73
2021/08/31 02:07:10;;;;;;;;;;;23.10;53.70;;;;;;491564;240;1225;-73
2021/08/31 02:09:11;;;;;;;;;;;23.50;53.60;;;;;;491634;240;1072;-73
2021/08/31 02:11:12;;;;;;;;;;;23.00;53.90;;;;;;491638;240;1206;-73
2021/08/31 02:13:13;;;;;;;;;;;22.90;54.40;;;;;;491619;240;1079;-73
2021/08/31 02:15:15;;;;;;;;;;;23.10;54.10;;;;;;491585;240;2188;-73
2021/08/31 02:17:16;;;;;;;;;;;23.10;53.90;;;;;;491676;240;1142;-73
2021/08/31 02:19:17;;;;;;;;;;;23.10;53.90;;;;;;491616;240;1137;-73
2021/08/31 02:21:19;;;;;;;;;;;23.10;54.00;;;;;;491659;240;1120;-73
2021/08/31 02:23:20;;;;;;;;;;;22.90;54.50;;;;;;491625;240;967;-73
2021/08/31 02:25:21;;;;;;;;;;;23.30;54.10;;;;;;491648;240;981;-73
2021/08/31 02:27:23;;;;;;;;;;;22.80;54.40;;;;;;491527;240;1184;-73
2021/08/31 02:29:25;;;;;;;;;;;23.10;53.70;;;;;;491708;240;1083;-73
2021/08/31 02:31:26;;;;;;;;;;;23.20;53.40;;;;;;491528;240;1217;-73
2021/08/31 02:33:27;;;;;;;;;;;23.00;54.00;;;;;;491633;240;1102;-73
2021/08/31 02:35:29;;;;;;;;;;;23.10;54.00;;;;;;491643;240;2199;-73
2021/08/31 02:37:30;;;;;;;;;;;23.50;53.50;;;;;;491568;240;1117;-73
2021/08/31 02:39:31;;;;;;;;;;;23.00;53.80;;;;;;491632;240;1051;-73
2021/08/31 02:41:33;;;;;;;;;;;23.00;54.20;;;;;;491470;240;1351;-73
2021/08/31 02:43:34;;;;;;;;;;;23.20;53.50;;;;;;491590;240;1105;-73
2021/08/31 02:45:35;;;;;;;;;;;23.10;53.60;;;;;;491557;240;1223;-73
2021/08/31 02:47:37;;;;;;;;;;;23.30;53.40;;;;;;491555;240;1087;-73
2021/08/31 02:49:38;;;;;;;;;;;23.50;53.30;;;;;;491656;240;1172;-73
2021/08/31 02:51:39;;;;;;;;;;;23.40;53.60;;;;;;491484;240;1322;-73
2021/08/31 02:53:41;;;;;;;;;;;23.00;54.00;;;;;;491623;240;1002;-73
2021/08/31 02:55:42;;;;;;;;;;;23.00;54.20;;;;;;491613;240;2191;-73
2021/08/31 02:57:43;;;;;;;;;;;23.10;53.60;;;;;;491585;240;1137;-73
2021/08/31 02:59:45;;;;;;;;;;;23.20;53.20;;;;;;491582;240;970;-73
2021/08/31 03:04:05;;;;;;;;;;;23.20;53.40;;;;;;491607;242;1162;-73
2021/08/31 03:06:06;;;;;;;;;;;23.00;54.00;;;;;;491564;240;1535;-73
2021/08/31 03:08:08;;;;;;;;;;;23.20;53.70;;;;;;491580;240;1071;-73
2021/08/31 03:10:09;;;;;;;;;;;23.40;53.20;;;;;;491638;240;1023;-73
2021/08/31 03:12:10;;;;;;;;;;;23.30;53.70;;;;;;491516;240;1164;-73
2021/08/31 03:14:12;;;;;;;;;;;23.70;52.70;;;;;;491653;240;1009;-73
2021/08/31 03:16:13;;;;;;;;;;;23.20;53.50;;;;;;491619;240;2151;-73
2021/08/31 03:18:14;;;;;;;;;;;23.10;54.10;;;;;;491675;240;1069;-73
2021/08/31 03:20:16;;;;;;;;;;;23.40;53.20;;;;;;491643;240;1152;-73
2021/08/31 03:22:17;;;;;;;;;;;23.00;54.00;;;;;;491645;240;1206;-73
2021/08/31 03:24:18;;;;;;;;;;;23.10;53.80;;;;;;491663;240;931;-73
2021/08/31 03:26:20;;;;;;;;;;;23.40;53.10;;;;;;491596;240;1212;-73
2021/08/31 03:28:21;;;;;;;;;;;23.60;53.10;;;;;;491630;240;1251;-74
2021/08/31 03:30:22;;;;;;;;;;;23.20;53.70;;;;;;491603;240;956;-73
2021/08/31 03:32:24;;;;;;;;;;;23.20;54.00;;;;;;491513;240;1111;-73
2021/08/31 03:34:25;;;;;;;;;;;23.20;53.60;;;;;;491766;240;1094;-72
2021/08/31 03:36:26;;;;;;;;;;;23.00;54.00;;;;;;491565;240;2124;-72
2021/08/31 03:38:27;;;;;;;;;;;23.30;53.40;;;;;;491612;240;1187;-73
2021/08/31 03:40:29;;;;;;;;;;;23.00;53.90;;;;;;491587;240;1031;-73
2021/08/31 03:42:30;;;;;;;;;;;23.40;53.30;;;;;;491514;240;1175;-73
2021/08/31 03:44:31;;;;;;;;;;;23.00;54.00;;;;;;491694;240;1025;-73
2021/08/31 03:46:33;;;;;;;;;;;23.00;54.50;;;;;;491613;240;1389;-73
2021/08/31 03:48:34;;;;;;;;;;;23.00;54.20;;;;;;491699;240;1115;-73
2021/08/31 03:50:35;;;;;;;;;;;23.00;54.10;;;;;;491599;240;1164;-73
2021/08/31 03:52:37;;;;;;;;;;;23.00;54.20;;;;;;491661;240;1099;-73
2021/08/31 03:54:38;;;;;;;;;;;23.20;53.70;;;;;;491602;240;1024;-73
2021/08/31 03:56:39;;;;;;;;;;;23.30;53.50;;;;;;491542;240;2120;-73
2021/08/31 03:58:41;;;;;;;;;;;23.00;54.10;;;;;;491562;240;1092;-73
2021/08/31 04:00:42;;;;;;;;;;;23.40;53.80;;;;;;491551;240;1182;-73
2021/08/31 04:02:43;;;;;;;;;;;23.30;53.40;;;;;;491545;240;1285;-73
2021/08/31 04:04:45;;;;;;;;;;;23.30;53.30;;;;;;491659;240;1077;-73
2021/08/31 04:06:46;;;;;;;;;;;23.20;53.40;;;;;;491497;240;1183;-73
2021/08/31 04:08:47;;;;;;;;;;;22.90;54.30;;;;;;491577;240;1050;-73
2021/08/31 04:10:49;;;;;;;;;;;23.60;53.30;;;;;;491497;240;1181;-73
2021/08/31 04:12:50;;;;;;;;;;;23.70;53.00;;;;;;491547;240;1112;-73
2021/08/31 04:14:51;;;;;;;;;;;23.10;53.50;;;;;;491514;240;2196;-73
2021/08/31 04:16:53;;;;;;;;;;;23.50;53.50;;;;;;491324;240;1109;-73
2021/08/31 04:18:54;;;;;;;;;;;23.50;53.40;;;;;;491506;240;1052;-73
2021/08/31 04:20:55;;;;;;;;;;;23.30;53.40;;;;;;491459;240;1321;-73
2021/08/31 04:22:57;;;;;;;;;;;23.40;53.10;;;;;;491500;240;1163;-73
2021/08/31 04:24:58;;;;;;;;;;;23.30;53.70;;;;;;491606;240;983;-73
2021/08/31 04:27:00;;;;;;;;;;;23.40;53.00;;;;;;491450;240;1144;-73
2021/08/31 04:29:01;;;;;;;;;;;23.10;53.80;;;;;;491548;240;1004;-73
2021/08/31 04:31:02;;;;;;;;;;;23.50;53.30;;;;;;491449;240;1322;-73
2021/08/31 04:33:04;;;;;;;;;;;23.50;53.40;;;;;;491512;240;1098;-73
2021/08/31 04:35:05;;;;;;;;;;;23.00;53.90;;;;;;491555;240;2180;-73
2021/08/31 04:37:06;;;;;;;;;;;23.00;54.30;;;;;;491496;240;1255;-72
2021/08/31 04:39:08;;;;;;;;;;;23.10;53.80;;;;;;491516;240;1042;-72
2021/08/31 04:41:10;;;;;;;;;;;23.60;52.80;;;;;;491327;240;1043;-72
2021/08/31 04:43:10;;;;;;;;;;;23.50;53.00;;;;;;491355;240;1409;-72
2021/08/31 04:45:12;;;;;;;;;;;23.20;53.80;;;;;;491513;240;1017;-72
2021/08/31 04:47:15;;;;;;;;;;;23.60;53.30;;;;;;491341;240;1309;-73
2021/08/31 04:49:15;;;;;;;;;;;23.20;53.60;;;;;;491518;240;1324;-73
2021/08/31 04:51:16;;;;;;;;;;;23.00;54.20;;;;;;491403;240;1138;-73
2021/08/31 04:53:19;;;;;;;;;;;23.20;53.70;;;;;;491443;240;1023;-73
2021/08/31 04:55:19;;;;;;;;;;;23.00;54.00;;;;;;491400;240;2188;-73
2021/08/31 04:57:20;;;;;;;;;;;23.50;53.00;;;;;;491377;240;1037;-73
2021/08/31 04:59:22;;;;;;;;;;;23.30;53.40;;;;;;491399;240;1000;-73
2021/08/31 05:01:23;;;;;;;;;;;23.60;52.70;;;;;;491305;240;1054;-73
2021/08/31 05:03:24;;;;;;;;;;;23.50;53.20;;;;;;491483;240;1032;-73
2021/08/31 05:05:26;;;;;;;;;;;23.00;53.90;;;;;;491452;240;1255;-73
2021/08/31 05:07:27;;;;;;;;;;;23.20;54.10;;;;;;491416;240;1049;-73
2021/08/31 05:09:28;;;;;;;;;;;23.20;53.70;;;;;;491411;240;1057;-73
2021/08/31 05:11:30;;;;;;;;;;;23.20;53.40;;;;;;491355;240;1155;-73
2021/08/31 05:13:34;;;;;;;;;;;23.30;53.20;;;;;;491276;240;1196;-73
2021/08/31 05:15:32;;;;;;;;;;;23.00;53.90;;;;;;491369;240;2187;-73
2021/08/31 05:17:34;;;;;;;;;;;23.50;52.90;;;;;;491365;240;1121;-73
2021/08/31 05:19:35;;;;;;;;;;;23.00;54.00;;;;;;491392;240;1057;-73
2021/08/31 05:21:36;;;;;;;;;;;23.30;53.70;;;;;;491367;240;1274;-73
2021/08/31 05:23:38;;;;;;;;;;;23.30;53.70;;;;;;491339;240;1030;-73
2021/08/31 05:25:39;;;;;;;;;;;23.10;53.80;;;;;;490653;240;1157;-72
2021/08/31 05:27:40;;;;;;;;;;;23.40;52.80;;;;;;491304;240;1105;-72
2021/08/31 05:29:42;;;;;;;;;;;23.10;53.70;;;;;;491298;240;1042;-72
2021/08/31 05:31:43;;;;;;;;;;;23.30;53.50;;;;;;491150;240;1220;-72
2021/08/31 05:33:44;;;;;;;;;;;23.30;53.30;;;;;;491181;240;1207;-73
2021/08/31 05:35:46;;;;;;;;;;;23.60;53.30;;;;;;491216;240;2191;-73
2021/08/31 05:37:47;;;;;;;;;;;23.30;53.50;;;;;;491195;240;1044;-73
2021/08/31 05:39:48;;;;;;;;;;;23.00;53.90;;;;;;491248;240;1033;-73
2021/08/31 05:41:50;;;;;;;;;;;23.20;53.90;;;;;;491228;240;1071;-73
2021/08/31 05:43:51;;;;;;;;;;;23.20;53.50;;;;;;491245;240;1062;-73
2021/08/31 05:45:52;;;;;;;;;;;23.30;53.50;;;;;;491157;240;1054;-73
2021/08/31 05:47:53;;;;;;;;;;;23.00;54.20;;;;;;491221;240;1073;-73
2021/08/31 05:49:55;;;;;;;;;;;23.40;53.40;;;;;;491271;240;1139;-73
2021/08/31 05:51:56;;;;;;;;;;;23.00;54.10;;;;;;491184;240;1178;-73
2021/08/31 05:53:57;;;;;;;;;;;22.90;54.40;;;;;;491170;240;1124;-73
2021/08/31 05:55:59;;;;;;;;;;;23.10;54.00;;;;;;491252;240;2187;-73
2021/08/31 05:58:00;;;;;;;;;;;22.90;54.20;;;;;;491262;240;1036;-73
2021/08/31 06:00:01;;;;;;;;;;;23.20;53.50;;;;;;491234;240;1124;-73
2021/08/31 06:02:03;;;;;;;;;;;23.30;53.40;;;;;;491130;240;1150;-73
2021/08/31 06:04:04;;;;;;;;;;;23.10;54.00;;;;;;491142;240;1145;-73
2021/08/31 06:06:06;;;;;;;;;;;23.30;53.70;;;;;;490995;240;1250;-73
2021/08/31 06:08:07;;;;;;;;;;;23.10;53.60;;;;;;491014;240;1137;-73
2021/08/31 06:10:08;;;;;;;;;;;23.10;53.60;;;;;;491113;240;1081;-73
2021/08/31 06:12:10;;;;;;;;;;;22.90;54.20;;;;;;490978;240;1076;-73
2021/08/31 06:14:11;;;;;;;;;;;23.10;53.90;;;;;;491095;240;1068;-73
2021/08/31 06:16:12;;;;;;;;;;;23.20;53.40;;;;;;490909;240;2180;-72
2021/08/31 06:18:14;;;;;;;;;;;23.40;53.10;;;;;;490772;240;1199;-73
2021/08/31 06:20:15;;;;;;;;;;;23.70;52.80;;;;;;490770;240;1114;-73
2021/08/31 06:22:16;;;;;;;;;;;23.40;53.40;;;;;;491047;240;1060;-73
2021/08/31 06:24:18;;;;;;;;;;;23.10;53.80;;;;;;491709;240;879;-73
2021/08/31 06:26:19;;;;;;;;;;;22.80;54.40;;;;;;491232;240;1203;-73
2021/08/31 06:28:20;;;;;;;;;;;23.00;54.30;;;;;;491252;240;1040;-73
2021/08/31 06:30:22;;;;;;;;;;;23.20;53.50;;;;;;490960;240;1516;-73
2021/08/31 06:32:23;;;;;;;;;;;23.10;54.10;;;;;;490716;240;1158;-73
2021/08/31 06:34:24;;;;;;;;;;;23.60;53.20;;;;;;490723;240;1061;-73
2021/08/31 06:36:26;;;;;;;;;;;23.00;54.00;;;;;;490665;240;2191;-73
2021/08/31 06:38:27;;;;;;;;;;;23.20;53.80;;;;;;490721;240;1170;-73
2021/08/31 06:40:28;;;;;;;;;;;23.00;54.20;;;;;;490632;240;1040;-73
2021/08/31 06:42:30;;;;;;;;;;;23.10;54.00;;;;;;490530;240;1437;-73
2021/08/31 06:44:31;;;;;;;;;;;23.30;53.40;;;;;;488203;239;2760;-72
2021/08/31 06:46:32;;;;;;;;;;;23.00;54.00;;;;;;490509;242;1359;-72
2021/08/31 06:48:34;;;;;;;;;;;22.90;54.60;;;;;;490575;240;1077;-72
2021/08/31 06:50:35;;;;;;;;;;;23.00;54.70;;;;;;490577;240;1092;-72
2021/08/31 06:52:36;;;;;;;;;;;23.10;54.50;;;;;;490588;240;1116;-73
2021/08/31 06:54:37;;;;;;;;;;;23.10;53.90;;;;;;490307;240;1096;-73
2021/08/31 06:56:39;;;;;;;;;;;23.30;53.80;;;;;;490295;240;2200;-73
2021/08/31 06:58:40;;;;;;;;;;;23.40;53.00;;;;;;490448;241;1153;-73
2021/08/31 07:00:42;;;;;;;;;;;23.80;52.50;;;;;;490789;240;1244;-73
2021/08/31 07:02:43;;;;;;;;;;;23.50;53.30;;;;;;490696;242;1322;-73
2021/08/31 07:04:44;;;;;;;;;;;23.30;53.80;;;;;;490581;240;1235;-73
2021/08/31 07:06:45;;;;;;;;;;;23.20;53.90;;;;;;490550;240;1270;-73
2021/08/31 07:08:47;;;;;;;;;;;23.80;53.30;;;;;;490603;240;1070;-73
2021/08/31 07:10:48;;;;;;;;;;;23.40;53.50;;;;;;490561;240;1308;-73
2021/08/31 07:12:49;;;;;;;;;;;23.10;54.00;;;;;;490598;240;1072;-73
2021/08/31 07:14:52;;;;;;;;;;;23.00;54.30;;;;;;490470;240;1122;-73
2021/08/31 07:16:53;;;;;;;;;;;23.70;53.00;;;;;;490323;240;2195;-73
2021/08/31 07:18:54;;;;;;;;;;;23.50;53.50;;;;;;490919;240;919;-73
2021/08/31 07:20:55;;;;;;;;;;;23.70;53.40;;;;;;491039;239;1182;-73
2021/08/31 07:22:57;;;;;;;;;;;23.30;53.40;;;;;;491031;240;1048;-73
2021/08/31 07:24:58;;;;;;;;;;;23.30;54.00;;;;;;491503;240;843;-73
2021/08/31 07:26:59;;;;;;;;;;;23.20;54.00;;;;;;490778;240;1018;-73
2021/08/31 07:29:01;;;;;;;;;;;23.20;53.90;;;;;;491294;240;928;-73
2021/08/31 07:31:02;;;;;;;;;;;23.00;54.60;;;;;;491243;240;833;-73
2021/08/31 07:33:05;;;;;;;;;;;23.30;53.80;;;;;;491355;240;1109;-73
2021/08/31 07:35:04;;;;;;;;;;;23.30;54.20;;;;;;490864;242;1302;-73
2021/08/31 07:37:06;;;;;;;;;;;23.40;53.90;;;;;;490993;240;2196;-73
2021/08/31 07:39:07;;;;;;;;;;;23.30;54.00;;;;;;491008;240;876;-73
2021/08/31 07:41:09;;;;;;;;;;;23.30;54.00;;;;;;490912;240;1414;-73
2021/08/31 07:43:10;;;;;;;;;;;23.40;54.10;;;;;;490740;240;1257;-73
2021/08/31 07:45:13;;;;;;;;;;;23.30;53.60;;;;;;490717;240;1130;-73
2021/08/31 07:47:13;;;;;;;;;;;23.40;53.40;;;;;;490360;240;1371;-73
2021/08/31 07:49:14;;;;;;;;;;;23.30;53.60;;;;;;490536;240;1388;-73
2021/08/31 07:51:16;;;;;;;;;;;23.50;53.70;;;;;;490426;240;1090;-74
2021/08/31 07:53:17;;;;;;;;;;;23.50;53.80;;;;;;490180;240;1489;-73
2021/08/31 07:55:20;;;;;;;;;;;23.10;54.10;;;;;;490417;240;1101;-73
2021/08/31 07:57:19;;;;;;;;;;;23.00;54.60;;;;;;490408;242;2204;-73
2021/08/31 07:59:21;;;;;;;;;;;23.10;54.40;;;;;;490629;240;982;-73
2021/08/31 08:01:22;;;;;;;;;;;22.80;54.80;;;;;;491241;240;1163;-73
2021/08/31 08:03:24;;;;;;;;;;;23.00;54.60;;;;;;491220;240;1042;-73
2021/08/31 08:05:25;;;;;;;;;;;23.10;54.60;;;;;;490964;240;851;-73
2021/08/31 08:07:26;;;;;;;;;;;23.70;53.60;;;;;;490744;240;1049;-73
2021/08/31 08:09:28;;;;;;;;;;;23.70;53.10;;;;;;491095;240;1012;-73
2021/08/31 08:11:29;;;;;;;;;;;23.20;53.60;;;;;;490989;240;1409;-73
2021/08/31 08:13:30;;;;;;;;;;;23.00;54.70;;;;;;490628;240;1079;-73
2021/08/31 08:15:32;;;;;;;;;;;23.10;54.30;;;;;;491250;240;827;-73
2021/08/31 08:17:33;;;;;;;;;;;23.40;53.70;;;;;;490632;240;2192;-73
2021/08/31 08:19:34;;;;;;;;;;;23.00;54.50;;;;;;491205;240;1038;-73
2021/08/31 08:21:36;;;;;;;;;;;23.00;54.40;;;;;;490422;240;1328;-73
2021/08/31 08:23:37;;;;;;;;;;;23.00;54.70;;;;;;490526;240;1177;-73
2021/08/31 08:25:39;;;;;;;;;;;23.30;54.30;;;;;;490463;240;1265;-73
2021/08/31 08:27:40;;;;;;;;;;;23.20;54.10;;;;;;490468;240;1196;-73
2021/08/31 08:29:41;;;;;;;;;;;23.50;53.40;;;;;;490358;240;1453;-73
2021/08/31 08:31:45;;;;;;;;;;;23.30;53.80;;;;;;490322;240;1202;-73
2021/08/31 08:33:44;;;;;;;;;;;23.60;53.40;;;;;;490307;242;1248;-73
2021/08/31 08:35:46;;;;;;;;;;;23.20;53.90;;;;;;490384;240;1222;-73
2021/08/31 08:37:47;;;;;;;;;;;23.00;54.50;;;;;;490399;240;2188;-73
2021/08/31 08:39:48;;;;;;;;;;;23.00;54.80;;;;;;490555;240;804;-73
2021/08/31 08:41:50;;;;;;;;;;;23.00;54.50;;;;;;491010;240;1218;-73
2021/08/31 08:43:51;;;;;;;;;;;22.90;54.80;;;;;;490996;240;1033;-73
2021/08/31 08:45:52;;;;;;;;;;;23.20;54.40;;;;;;490888;240;1411;-73
2021/08/31 08:47:53;;;;;;;;;;;23.20;54.50;;;;;;490937;240;1038;-73
2021/08/31 08:49:55;;;;;;;;;;;23.40;53.70;;;;;;490506;240;794;-73
2021/08/31 08:51:56;;;;;;;;;;;23.40;53.80;;;;;;490391;240;1009;-73
2021/08/31 08:53:57;;;;;;;;;;;23.30;53.50;;;;;;490669;240;1039;-73
2021/08/31 08:56:00;;;;;;;;;;;23.40;53.50;;;;;;491362;240;1204;-73
2021/08/31 08:58:00;;;;;;;;;;;23.30;53.80;;;;;;490961;240;2195;-73
2021/08/31 09:00:01;;;;;;;;;;;23.30;53.50;;;;;;490657;240;833;-73
2021/08/31 09:02:03;;;;;;;;;;;23.70;53.10;;;;;;491149;240;1119;-73
2021/08/31 09:04:04;;;;;;;;;;;23.20;54.00;;;;;;491098;240;984;-73
2021/08/31 09:06:05;;;;;;;;;;;22.90;54.60;;;;;;490552;240;1522;-74
2021/08/31 09:08:07;;;;;;;;;;;23.10;54.60;;;;;;490548;240;1219;-73
2021/08/31 09:10:08;;;;;;;;;;;23.20;54.30;;;;;;490421;240;1166;-73
2021/08/31 09:12:09;;;;;;;;;;;23.20;53.90;;;;;;490317;240;1127;-73
2021/08/31 09:14:11;;;;;;;;;;;23.10;54.10;;;;;;490372;240;1066;-73
2021/08/31 09:16:12;;;;;;;;;;;23.50;53.40;;;;;;490429;240;1256;-73
2021/08/31 09:18:14;;;;;;;;;;;23.40;53.70;;;;;;490415;240;2187;-73
2021/08/31 09:20:15;;;;;;;;;;;23.40;53.80;;;;;;490252;242;1522;-73
2021/08/31 09:22:16;;;;;;;;;;;23.30;53.80;;;;;;489992;240;1299;-73
2021/08/31 09:24:17;;;;;;;;;;;23.00;54.50;;;;;;490483;240;1194;-73
2021/08/31 09:26:19;;;;;;;;;;;23.10;54.20;;;;;;490405;240;1330;-73
2021/08/31 09:28:20;;;;;;;;;;;23.30;54.10;;;;;;490548;240;1108;-73
2021/08/31 09:30:21;;;;;;;;;;;23.20;54.10;;;;;;490308;240;1095;-73
2021/08/31 09:32:23;;;;;;;;;;;23.00;54.60;;;;;;490153;240;1153;-73
2021/08/31 09:34:24;;;;;;;;;;;23.20;54.40;;;;;;490286;240;1096;-73
2021/08/31 09:36:25;;;;;;;;;;;23.50;53.70;;;;;;490273;240;1133;-73
2021/08/31 09:38:27;;;;;;;;;;;23.50;53.30;;;;;;490297;240;2204;-73
2021/08/31 09:40:30;;;;;;;;;;;23.30;54.10;;;;;;490439;240;1365;-73
2021/08/31 09:42:29;;;;;;;;;;;23.10;54.10;;;;;;490054;240;1363;-73
2021/08/31 09:44:32;;;;;;;;;;;23.40;53.60;;;;;;490424;240;1039;-73
2021/08/31 09:46:32;;;;;;;;;;;23.70;53.10;;;;;;490347;242;1214;-73
2021/08/31 09:48:33;;;;;;;;;;;23.80;52.80;;;;;;490636;240;749;-73
2021/08/31 09:50:35;;;;;;;;;;;23.60;53.00;;;;;;490604;240;1028;-73
2021/08/31 09:52:36;;;;;;;;;;;23.40;53.40;;;;;;490687;240;1020;-73
2021/08/31 09:54:37;;;;;;;;;;;23.10;54.00;;;;;;490610;240;1548;-73
2021/08/31 09:56:39;;;;;;;;;;;23.40;53.20;;;;;;490871;240;1224;-73
2021/08/31 09:58:40;;;;;;;;;;;23.60;53.10;;;;;;490544;240;2183;-73
2021/08/31 10:00:41;;;;;;;;;;;23.50;53.40;;;;;;490926;240;886;-73
2021/08/31 10:02:47;;;;;;;;;;;23.20;53.80;;;;;;490528;242;1077;-73
2021/08/31 10:04:44;;;;;;;;;;;23.00;54.30;;;;;;490308;242;1320;-73
2021/08/31 10:06:45;;;;;;;;;;;23.00;54.50;;;;;;491024;240;1165;-73
2021/08/31 10:08:46;;;;;;;;;;;23.00;54.70;;;;;;490677;240;1063;-73
2021/08/31 10:10:48;;;;;;;;;;;22.80;54.90;;;;;;490488;240;1246;-73
2021/08/31 10:12:49;;;;;;;;;;;23.50;53.80;;;;;;490685;240;1033;-73
2021/08/31 10:14:50;;;;;;;;;;;23.30;53.80;;;;;;491057;240;830;-73
2021/08/31 10:16:52;;;;;;;;;;;23.20;54.00;;;;;;490974;240;1304;-73
2021/08/31 10:18:53;;;;;;;;;;;23.60;53.50;;;;;;491351;240;2199;-73
2021/08/31 10:20:54;;;;;;;;;;;23.30;53.60;;;;;;490407;240;1143;-73
2021/08/31 10:22:56;;;;;;;;;;;23.30;54.20;;;;;;490447;240;1142;-73
2021/08/31 10:24:57;;;;;;;;;;;23.30;53.50;;;;;;490492;240;1064;-73
2021/08/31 10:26:59;;;;;;;;;;;22.90;54.50;;;;;;490411;240;1093;-73
2021/08/31 10:29:00;;;;;;;;;;;23.40;53.50;;;;;;490433;240;1040;-73
2021/08/31 10:31:01;;;;;;;;;;;23.10;54.20;;;;;;490509;240;1030;-73
2021/08/31 10:33:03;;;;;;;;;;;23.60;53.30;;;;;;490400;240;1102;-73
2021/08/31 10:35:04;;;;;;;;;;;23.20;53.80;;;;;;490496;240;1066;-73
2021/08/31 10:37:05;;;;;;;;;;;23.30;54.00;;;;;;490415;240;1775;-73
2021/08/31 10:39:07;;;;;;;;;;;23.30;53.90;;;;;;490434;240;2192;-73
2021/08/31 10:41:08;;;;;;;;;;;23.40;53.30;;;;;;490456;240;1157;-73
2021/08/31 10:43:09;;;;;;;;;;;23.40;53.20;;;;;;490463;240;1261;-73
2021/08/31 10:45:10;;;;;;;;;;;23.60;53.30;;;;;;490534;240;1037;-73
2021/08/31 10:47:12;;;;;;;;;;;23.20;54.00;;;;;;490497;240;1200;-73
2021/08/31 10:49:13;;;;;;;;;;;23.50;53.60;;;;;;490504;240;1239;-73
2021/08/31 10:51:17;;;;;;;;;;;23.30;53.30;;;;;;490341;240;1343;-73
2021/08/31 10:53:16;;;;;;;;;;;23.20;53.90;;;;;;490283;242;1229;-73
2021/08/31 10:55:17;;;;;;;;;;;23.40;53.20;;;;;;490484;240;1199;-73
2021/08/31 10:57:19;;;;;;;;;;;23.10;54.00;;;;;;490276;240;2203;-73
2021/08/31 10:59:20;;;;;;;;;;;23.70;53.10;;;;;;490249;240;1036;-73
2021/08/31 11:01:22;;;;;;;;;;;23.70;52.90;;;;;;490311;240;1347;-73
2021/08/31 11:03:23;;;;;;;;;;;23.50;52.90;;;;;;490291;240;1253;-73
2021/08/31 11:05:24;;;;;;;;;;;23.20;53.80;;;;;;490554;240;1129;-73
2021/08/31 11:07:25;;;;;;;;;;;23.20;53.60;;;;;;490488;240;1108;-73
2021/08/31 11:09:27;;;;;;;;;;;23.30;53.80;;;;;;490518;240;1042;-73
2021/08/31 11:11:28;;;;;;;;;;;23.00;54.30;;;;;;490482;240;1354;-73
2021/08/31 11:13:29;;;;;;;;;;;22.80;54.70;;;;;;490438;240;1069;-73
2021/08/31 11:15:31;;;;;;;;;;;23.10;54.40;;;;;;490314;240;1068;-73
2021/08/31 11:17:32;;;;;;;;;;;23.10;54.40;;;;;;489873;240;2204;-73
2021/08/31 11:19:34;;;;;;;;;;;23.10;53.70;;;;;;490349;240;1092;-73
2021/08/31 11:21:35;;;;;;;;;;;22.80;54.50;;;;;;490510;240;1112;-73
2021/08/31 11:23:36;;;;;;;;;;;22.90;54.40;;;;;;490627;240;877;-73
2021/08/31 11:25:38;;;;;;;;;;;22.80;55.00;;;;;;490624;240;1051;-73
2021/08/31 11:27:39;;;;;;;;;;;22.70;55.00;;;;;;490847;240;1090;-73
2021/08/31 11:29:40;;;;;;;;;;;22.90;54.80;;;;;;490628;240;820;-73
2021/08/31 11:31:42;;;;;;;;;;;23.10;53.70;;;;;;490779;240;1511;-73
2021/08/31 11:33:43;;;;;;;;;;;23.00;54.20;;;;;;491108;240;1122;-73
2021/08/31 11:35:44;;;;;;;;;;;23.10;54.20;;;;;;490527;240;1330;-73
2021/08/31 11:37:45;;;;;;;;;;;23.80;52.80;;;;;;490302;240;2184;-73
2021/08/31 11:39:48;;;;;;;;;;;23.30;53.20;;;;;;490495;240;1053;-74
2021/08/31 11:41:49;;;;;;;;;;;23.30;53.50;;;;;;490323;240;1302;-73
2021/08/31 11:43:51;;;;;;;;;;;23.30;52.80;;;;;;490484;240;1088;-73
2021/08/31 11:45:52;;;;;;;;;;;23.40;53.20;;;;;;490428;240;1087;-73
2021/08/31 11:47:53;;;;;;;;;;;23.40;52.90;;;;;;490302;240;1104;-73
2021/08/31 11:49:55;;;;;;;;;;;23.30;53.40;;;;;;490542;240;1022;-73
2021/08/31 11:51:56;;;;;;;;;;;23.60;52.90;;;;;;490476;239;1212;-73
2021/08/31 11:53:57;;;;;;;;;;;23.20;53.50;;;;;;490447;240;1074;-73
2021/08/31 11:55:59;;;;;;;;;;;23.40;53.30;;;;;;490106;240;1112;-73
2021/08/31 11:58:00;;;;;;;;;;;23.30;53.10;;;;;;490005;240;2183;-73
2021/08/31 12:00:01;;;;;;;;;;;23.40;52.40;;;;;;490374;240;1274;-74